This is the latest recevied weather packets stored in our database for station/object 2E0RGX-13. If no packets are shown the sender has not sent any weather packets the latest 10 day(s).
| Time | Temp. | Humidity | Pressure | Rain* | Wind** | Luminosity | Snow |
|---|---|---|---|---|---|---|---|
| 1778068981 | 13.33° C | 58% | 1009.8 hPa | 0 mm | - | 5 W/m² | - |
| 1778068677 | 12.78° C | 61% | 1009.9 hPa | 0 mm | - | 3 W/m² | - |
| 1778068373 | 12.78° C | 62% | 1010 hPa | 0 mm | - | 3 W/m² | - |
| 1778068070 | 13.33° C | 60% | 1009.8 hPa | 0 mm | - | 3 W/m² | - |
| 1778067766 | 13.33° C | 60% | 1009.8 hPa | 0 mm | - | 4 W/m² | - |
| 1778067462 | 12.22° C | 61% | 1009.8 hPa | 0 mm | - | 6 W/m² | - |
| 1778067158 | 12.22° C | 62% | 1009.9 hPa | 0 mm | - | 3 W/m² | - |
| 1778066854 | 12.22° C | 63% | 1009.9 hPa | 0 mm | - | 2 W/m² | - |
| 1778066549 | 12.22° C | 61% | 1009.9 hPa | 0 mm | - | 2 W/m² | - |
| 1778066245 | 12.78° C | 62% | 1009.9 hPa | 0 mm | - | 1 W/m² | - |
| 1778065941 | 12.78° C | 61% | 1009.9 hPa | 0 mm | - | 2 W/m² | - |
| 1778065637 | 12.78° C | 60% | 1009.6 hPa | 0 mm | - | 4 W/m² | - |
| 1778065333 | 12.22° C | 62% | 1009.8 hPa | 0 mm | - | 6 W/m² | - |
| 1778065029 | 12.22° C | 61% | 1009.8 hPa | 0 mm | - | 2 W/m² | - |
| 1778064726 | 12.78° C | 61% | 1009.7 hPa | 0 mm | - | 1 W/m² | - |
| 1778064422 | 12.22° C | 60% | 1010.2 hPa | 0 mm | - | 2 W/m² | - |
| 1778064118 | 13.33° C | 57% | 1009.9 hPa | 0 mm | - | 3 W/m² | - |
| 1778063814 | 12.78° C | 58% | 1009.9 hPa | 0 mm | - | 5 W/m² | - |
| 1778063510 | 12.22° C | 59% | 1009.8 hPa | 0 mm | - | 2 W/m² | - |
| 1778063206 | 12.22° C | 59% | 1009.8 hPa | 0 mm | - | 5 W/m² | - |
| 1778062901 | 12.22° C | 58% | 1010.1 hPa | 0 mm | - | 2 W/m² | - |
| 1778062597 | 11.67° C | 61% | 1009.9 hPa | 0 mm | - | 5 W/m² | - |
| 1778062293 | 11.67° C | 60% | 1009.9 hPa | 0 mm | - | 4 W/m² | - |
| 1778061989 | 11.67° C | 61% | 1009.8 hPa | 0 mm | - | 3 W/m² | - |
| 1778061685 | 11.67° C | 62% | 1010 hPa | 0 mm | - | 2 W/m² | - |
* Rain latest hour (hover to see other rain measurements)
** Current wind speed in m/s (hover to see current wind gust speed)